Latest Weather Observations for Lombadina

IDW60801

Issued at 6:03 pm WST Monday 17 December 2018 (issued every 10 minutes, with the page automatically refreshed every 10 minutes)

About weather observations | Map of weather stations | Latest weather observations for WA | Other Formats
Station Details ID: 503016 Name: LOMBADINA AIRSTRIP Lat: -16.52 Lon: 122.92 Height: 42.0 m
Data from the previous 72 hours. | See also: Recent months for locations in Western Australia
Date/Time
WST
Temp
°C
App
Temp
°C
Dew
Point
°C
Rel
Hum
%
Delta-T
°C
Wind Press
QNH
hPa
Press
MSL
hPa
Rain since
9am
mm
Dir  Spd
km/h
Gust
km/h
Spd
kts
Gust
kts
17/06:00pm 27.1 28.0 20.0 65 4.6 W 15 28 8 15 1006.9 1006.5 0.0
17/05:30pm 27.7 28.2 20.0 63 5.0 WSW 17 35 9 19 1006.6 1006.2 0.0
17/05:00pm 27.9 28.0 19.9 61 5.2 W 19 32 10 17 1006.5 1006.1 0.0
17/04:30pm 28.6 28.8 20.1 60 5.6 W 19 39 10 21 1006.4 1006.0 0.0
17/04:00pm 29.1 29.2 20.3 59 5.8 W 20 35 11 19 1006.2 1005.8 0.0
17/03:30pm 29.6 29.4 19.3 54 6.7 W 19 37 10 20 1006.2 1005.8 0.0
17/03:00pm 29.1 28.0 19.4 55 6.3 W 24 43 13 23 1006.3 1005.9 0.0
17/02:30pm 30.1 29.9 20.6 56 6.3 WSW 22 41 12 22 1006.4 1006.0 0.0
17/02:00pm 29.4 29.1 20.3 58 6.0 W 22 41 12 22 1006.8 1006.4 0.0
17/01:30pm 30.0 29.5 20.0 55 6.6 W 22 44 12 24 1007.1 1006.7 0.0
17/01:00pm 30.3 29.3 19.6 52 7.0 W 24 44 13 24 1007.2 1006.8 0.0
17/12:30pm 30.2 29.7 19.9 54 6.8 W 22 39 12 21 1007.7 1007.3 0.0
17/12:00pm 31.1 31.5 20.7 54 6.9 W 19 39 10 21 1008.2 1007.8 0.0
17/11:30am 30.1 29.9 19.8 54 6.8 W 20 39 11 21 1008.3 1007.9 0.0
17/11:00am 30.1 30.1 20.9 57 6.1 W 22 39 12 21 1008.6 1008.2 0.0
17/10:30am 29.6 28.8 19.3 54 6.7 W 22 41 12 22 1008.6 1008.2 0.0
17/10:00am 29.7 29.7 19.7 55 6.6 W 19 35 10 19 1009.0 1008.6 0.0
17/09:30am 29.7 30.3 19.4 54 6.7 W 15 32 8 17 1009.2 1008.8 0.0
17/09:00am 28.7 28.8 19.9 59 5.8 W 19 33 10 18 1009.4 1009.0 0.0
17/08:30am 28.6 28.7 19.2 56 6.1 WSW 17 28 9 15 1009.5 1009.1 0.0
17/08:00am 28.5 29.6 20.5 62 5.3 W 15 28 8 15 1009.3 1008.9 0.0
17/07:30am 28.3 29.6 20.8 63 5.0 W 15 32 8 17 1009.2 1008.8 0.0
17/07:00am 27.6 29.3 20.9 67 4.4 W 13 26 7 14 1009.0 1008.6 0.0
17/06:30am 27.0 28.5 20.6 68 4.2 WSW 13 30 7 16 1008.8 1008.4 0.0
17/06:00am 26.7 29.2 21.0 71 3.8 WSW 9 20 5 11 1008.5 1008.1 0.0
17/05:30am 26.5 28.6 21.0 72 3.6 WSW 11 20 6 11 1007.7 1007.3 0.0
17/05:00am 26.4 28.1 20.9 72 3.6 W 13 22 7 12 1007.1 1006.7 0.0
17/04:30am 26.5 27.9 21.0 72 3.6 W 15 28 8 15 1006.9 1006.5 0.0
17/04:00am 26.7 28.5 21.2 72 3.7 W 13 28 7 15 1006.8 1006.4 0.0
17/03:30am 26.7 28.3 21.5 73 3.5 W 15 33 8 18 1006.5 1006.1 0.0
17/03:00am 26.5 28.9 21.5 74 3.3 W 11 20 6 11 1006.2 1005.8 0.0
17/02:30am 26.7 28.9 21.9 75 3.2 W 13 24 7 13 1006.4 1006.0 0.0
17/02:00am 26.6 28.3 21.6 74 3.3 W 15 30 8 16 1006.4 1006.0 0.0
17/01:30am 26.6 28.6 21.6 74 3.3 W 13 28 7 15 1006.6 1006.2 0.0
17/01:00am 26.6 28.8 21.8 75 3.2 W 13 20 7 11 1006.9 1006.5 0.0
17/12:30am 26.5 29.0 21.7 75 3.2 W 11 20 6 11 1007.1 1006.7 0.0
17/12:00am 26.9 29.2 22.1 75 3.2 W 13 22 7 12 1007.5 1007.1 0.0
 
Date/Time
WST
Temp
°C
App
Temp
°C
Dew
Point
°C
Rel
Hum
%
Delta-T
°C
Wind Press
QNH
hPa
Press
MSL
hPa
Rain since
9am
mm
Dir  Spd
km/h
Gust
km/h
Spd
kts
Gust
kts
16/11:30pm 26.7 28.9 21.9 75 3.2 W 13 22 7 12 1008.0 1007.6 0.0
16/11:00pm 26.7 29.9 22.3 77 3.0 W 9 20 5 11 1008.1 1007.7 0.0
16/10:30pm 26.6 29.2 22.0 76 3.1 WSW 11 19 6 10 1008.2 1007.8 0.0
16/10:00pm 26.8 29.4 22.0 75 3.2 W 11 20 6 11 1008.3 1007.9 0.0
16/09:30pm 26.8 29.4 22.0 75 3.2 W 11 20 6 11 1008.3 1007.9 0.0
16/09:00pm 27.0 29.4 22.2 75 3.2 W 13 20 7 11 1008.3 1007.9 0.0
16/08:30pm 26.9 29.6 22.1 75 3.2 WSW 11 22 6 12 1008.1 1007.7 0.0
16/08:00pm 27.0 29.7 22.2 75 3.2 WSW 11 22 6 12 1007.9 1007.5 0.0
16/07:30pm 27.3 29.7 22.3 74 3.4 WSW 13 28 7 15 1007.7 1007.3 0.0
16/07:00pm 27.4 29.5 22.4 74 3.4 WSW 15 26 8 14 1007.4 1007.0 0.0
16/06:30pm 27.5 29.5 22.2 73 3.6 W 15 30 8 16 1007.3 1006.9 0.0
16/06:00pm 27.8 29.8 22.3 72 3.7 W 15 33 8 18 1006.9 1006.5 0.0
16/05:30pm 28.3 29.3 21.8 68 4.4 WSW 19 33 10 18 1006.5 1006.1 0.0
16/05:00pm 28.7 29.7 22.2 68 4.4 W 20 41 11 22 1006.1 1005.7 0.0
16/04:30pm 29.4 30.5 21.9 64 5.1 WSW 19 41 10 22 1006.0 1005.6 0.0
16/04:00pm 29.5 29.9 22.5 66 4.8 W 24 44 13 24 1005.8 1005.4 0.0
16/03:30pm 29.9 29.9 21.6 61 5.6 W 24 43 13 23 1005.9 1005.5 0.0
16/03:00pm 30.6 30.4 22.7 62 5.4 W 28 48 15 26 1006.0 1005.6 0.0
16/02:53pm 29.7 29.1 21.9 63 5.3 W 28 48 15 26 1006.0 1005.6 0.0
16/02:30pm 30.6 30.6 21.7 59 6.0 W 24 46 13 25 1006.1 1005.7 0.0
16/02:00pm 30.8 30.8 21.6 58 6.2 WSW 24 39 13 21 1006.5 1006.1 0.0
16/01:30pm 31.3 31.5 22.0 57 6.3 WSW 24 46 13 25 1006.5 1006.1 0.0
16/01:00pm 30.8 30.9 21.9 59 6.0 WSW 24 44 13 24 1006.9 1006.5 0.0
16/12:30pm 30.1 30.1 20.9 57 6.1 W 22 44 12 24 1007.0 1006.6 0.0
16/12:00pm 30.4 30.7 21.5 59 6.0 W 22 39 12 21 1007.2 1006.8 0.0
16/11:30am 30.6 30.6 21.7 59 6.0 W 24 43 13 23 1007.5 1007.1 0.0
16/11:00am 30.8 31.4 22.1 59 5.9 WSW 22 43 12 23 1007.7 1007.3 0.0
16/10:30am 31.2 32.2 21.7 57 6.4 W 19 35 10 19 1007.8 1007.4 0.0
16/10:00am 30.6 31.5 21.9 59 5.9 W 20 39 11 21 1008.0 1007.6 0.0
16/09:30am 29.9 30.6 21.6 61 5.6 W 20 35 11 19 1008.4 1008.0 0.0
16/09:00am 30.1 31.0 22.0 62 5.5 WSW 20 35 11 19 1008.5 1008.1 0.0
16/08:30am 29.6 30.6 22.1 64 5.1 W 20 37 11 20 1008.4 1008.0 0.0
16/08:00am 29.3 30.6 22.3 66 4.8 W 19 32 10 17 1008.3 1007.9 0.0
16/07:30am 28.8 30.0 22.1 67 4.5 W 19 35 10 19 1008.1 1007.7 0.0
16/07:00am 28.5 30.5 22.3 69 4.2 W 15 28 8 15 1007.8 1007.4 0.0
16/06:30am 28.4 30.4 22.9 72 3.8 W 17 30 9 16 1007.5 1007.1 0.0
16/06:00am 27.6 30.3 22.8 75 3.3 W 13 22 7 12 1007.1 1006.7 0.0
16/05:30am 27.2 29.9 22.8 77 3.0 W 13 24 7 13 1006.9 1006.5 0.0
16/05:00am 26.9 29.6 22.9 79 2.7 W 13 33 7 18 1006.4 1006.0 0.0
16/04:30am 27.0 29.6 22.6 77 3.0 W 13 24 7 13 1006.1 1005.7 0.0
16/04:00am 26.9 29.2 22.7 78 2.9 W 15 28 8 15 1005.8 1005.4 0.0
16/03:30am 27.0 29.4 23.0 79 2.7 W 15 26 8 14 1005.6 1005.2 0.0
16/03:00am 27.0 29.4 23.0 79 2.7 W 15 26 8 14 1005.5 1005.1 0.0
16/02:30am 27.0 29.4 23.0 79 2.7 W 15 26 8 14 1005.5 1005.1 0.0
16/02:00am 27.1 30.1 23.3 80 2.6 W 13 22 7 12 1005.7 1005.3 0.0
16/01:30am 26.9 30.3 23.4 81 2.4 W 11 22 6 12 1005.7 1005.3 0.0
16/01:00am 27.1 30.5 23.3 80 2.6 W 11 24 6 13 1005.8 1005.4 0.0
16/12:30am 27.3 30.3 23.3 79 2.7 W 13 24 7 13 1006.0 1005.6 0.0
16/12:00am 27.3 30.7 23.3 79 2.7 W 11 24 6 13 1006.1 1005.7 0.0
 
Date/Time
WST
Temp
°C
App
Temp
°C
Dew
Point
°C
Rel
Hum
%
Delta-T
°C
Wind Press
QNH
hPa
Press
MSL
hPa
Rain since
9am
mm
Dir  Spd
km/h
Gust
km/h
Spd
kts
Gust
kts
15/11:30pm 27.3 30.3 23.3 79 2.7 WNW 13 26 7 14 1006.4 1006.0 0.0
15/11:00pm 27.4 30.7 23.2 78 2.9 W 11 22 6 12 1006.5 1006.1 0.0
15/10:30pm 27.6 30.4 23.6 79 2.7 W 15 28 8 15 1006.6 1006.2 0.0
15/10:00pm 27.6 30.4 23.6 79 2.8 W 15 26 8 14 1006.6 1006.2 0.0
15/09:30pm 27.6 30.9 23.8 80 2.6 W 13 26 7 14 1006.3 1005.9 0.0
15/09:00pm 27.7 31.0 23.9 80 2.6 W 13 24 7 13 1005.8 1005.4 0.0
15/08:30pm 27.9 30.5 23.9 79 2.8 W 17 33 9 18 1005.3 1004.9 0.0
15/08:00pm 28.0 30.6 24.0 79 2.8 W 17 28 9 15 1005.2 1004.8 0.0
15/07:30pm 28.0 31.0 24.0 79 2.8 W 15 30 8 16 1004.8 1004.5 0.0
15/07:00pm 28.1 30.7 23.9 78 2.9 WNW 17 30 9 16 1004.6 1004.3 0.0
15/06:30pm 28.2 31.6 24.0 78 2.9 WNW 13 24 7 13 1004.2 1003.9 0.0
15/06:00pm 28.6 31.2 23.9 75 3.3 W 17 32 9 17 1004.1 1003.8 0.0
15/05:30pm 29.1 31.3 24.0 74 3.5 W 19 33 10 18 1003.7 1003.4 0.0
15/05:00pm 29.5 31.5 23.9 72 3.9 W 20 33 11 18 1003.8 1003.5 0.0
15/04:30pm 29.8 32.0 24.0 71 4.0 WNW 19 35 10 19 1003.6 1003.3 0.0
15/04:00pm 30.3 32.5 24.0 69 4.4 W 19 33 10 18 1003.5 1003.2 0.0
15/03:30pm 31.0 33.0 23.9 66 4.9 W 20 33 11 18 1003.6 1003.3 0.0
15/03:00pm 30.2 31.9 24.1 70 4.3 WNW 22 33 12 18 1003.5 1003.2 0.0
15/02:30pm 30.8 32.8 24.0 67 4.7 WNW 20 32 11 17 1003.9 1003.6 0.0
15/02:00pm 31.2 33.6 23.6 64 5.3 WNW 17 35 9 19 1004.3 1004.0 0.0
15/01:30pm 31.0 33.1 24.1 66 4.8 WNW 20 37 11 20 1004.4 1004.1 0.0
15/01:00pm 31.9 34.2 24.5 65 5.2 WNW 20 37 11 20 1004.6 1004.3 0.0
15/12:30pm 31.1 32.6 22.7 61 5.8 WNW 19 32 10 17 1004.8 1004.5 0.0
15/12:00pm 30.5 32.9 23.7 67 4.7 WNW 17 32 9 17 1005.2 1004.8 0.0
15/11:30am 30.0 32.2 23.2 67 4.7 WNW 17 30 9 16 1005.5 1005.1 0.0
15/11:00am 30.7 33.3 23.9 67 4.7 WNW 17 30 9 16 1005.8 1005.4 0.0
15/10:30am 30.8 33.5 23.5 65 5.0 WNW 15 28 8 15 1006.2 1005.8 0.0
15/10:00am 30.7 33.7 23.4 65 5.1 WNW 13 26 7 14 1006.4 1006.0 0.0
15/09:30am 30.1 32.9 23.0 65 4.9 WNW 13 24 7 13 1006.5 1006.1 0.0
15/09:00am 29.6 32.2 23.3 69 4.3 WNW 15 24 8 13 1006.7 1006.3 0.0
15/08:30am 29.7 32.7 23.4 69 4.3 W 13 22 7 12 1006.7 1006.3 0.0
15/08:00am 29.3 32.4 23.5 71 4.0 W 13 20 7 11 1007.0 1006.6 0.0
15/07:30am 29.0 32.6 23.7 73 3.7 WNW 11 22 6 12 1006.7 1006.3 0.0
15/07:00am 29.1 32.7 23.8 73 3.7 W 11 19 6 10 1006.5 1006.1 0.0
15/06:30am 28.8 33.3 23.9 75 3.4 W 7 17 4 9 1006.3 1005.9 0.0
15/06:00am 28.1 32.6 23.9 78 2.9 W 7 11 4 6 1006.3 1005.9 0.0
15/05:30am 28.0 32.5 24.0 79 2.8 W 7 13 4 7 1006.1 1005.7 0.0
15/05:00am 28.0 31.6 23.8 78 2.9 W 11 19 6 10 1005.7 1005.3 0.0
15/04:30am 27.9 31.5 23.7 78 2.9 WNW 11 22 6 12 1005.5 1005.1 0.0
15/04:00am 27.9 31.1 23.7 78 2.9 WNW 13 28 7 15 1005.1 1004.7 0.0
15/03:30am 27.8 30.3 23.8 79 2.8 W 17 33 9 18 1004.4 1004.1 0.0
15/03:00am 27.7 30.3 23.9 80 2.6 WNW 17 32 9 17 1004.1 1003.8 0.0
15/02:30am 27.7 30.3 23.9 80 2.6 WNW 17 30 9 16 1004.3 1004.0 0.0
15/02:00am 27.7 30.6 24.5 83 2.2 WNW 17 33 9 18 1004.5 1004.2 0.0
15/01:30am 27.7 30.9 24.3 82 2.4 WNW 15 32 8 17 1004.6 1004.3 0.0
15/01:00am 27.8 31.5 24.6 83 2.2 WNW 13 32 7 17 1004.8 1004.5 0.0
15/12:30am 28.0 31.0 24.0 79 2.8 WNW 15 30 8 16 1005.3 1004.9 0.0
15/12:00am 27.9 31.6 24.5 82 2.4 WNW 13 22 7 12 1005.6 1005.2 0.0
 
Date/Time
WST
Temp
°C
App
Temp
°C
Dew
Point
°C
Rel
Hum
%
Delta-T
°C
Wind Press
QNH
hPa
Press
MSL
hPa
Rain since
9am
mm
Dir  Spd
km/h
Gust
km/h
Spd
kts
Gust
kts
14/11:30pm 28.0 31.2 24.4 81 2.5 WNW 15 28 8 15 1006.0 1005.6 0.0
14/11:00pm 28.0 31.9 24.2 80 2.6 WNW 11 20 6 11 1006.5 1006.1 0.0
14/10:30pm 28.1 32.0 24.3 80 2.6 WNW 11 22 6 12 1006.4 1006.0 0.0
14/10:00pm 28.2 32.5 24.2 79 2.8 WNW 9 17 5 9 1006.6 1006.2 0.0
14/09:30pm 28.2 32.1 24.2 79 2.8 WNW 11 20 6 11 1006.7 1006.3 0.0
14/09:00pm 28.4 31.8 24.6 80 2.7 WNW 15 26 8 14 1006.3 1005.9 0.0
14/08:30pm 28.4 32.1 24.6 80 2.7 W 13 22 7 12 1006.1 1005.7 0.0
14/08:00pm 28.4 32.0 24.4 79 2.8 WNW 13 26 7 14 1005.9 1005.5 0.0
14/07:30pm 28.5 31.4 24.5 79 2.8 WNW 17 26 9 14 1005.6 1005.2 0.0
14/07:00pm 28.6 32.2 24.4 78 2.9 WNW 13 26 7 14 1005.4 1005.0 0.0
14/06:30pm 28.7 31.9 24.3 77 3.1 WNW 15 26 8 14 1005.3 1004.9 0.0

Other Formats:

Comma delimited format used in spreadsheet applications
http://www.bom.gov.au/fwo/IDW60801/IDW60801.99206.axf

JavaScript Object Notation format (JSON) in row-major order
http://www.bom.gov.au/fwo/IDW60801/IDW60801.99206.json